createdAt,value
2018-10-16T00:01:19.329Z,100783.72
2018-10-16T00:03:46.631Z,100782.83
2018-10-16T00:06:13.882Z,100778.03
2018-10-16T00:08:41.849Z,100784.38
2018-10-16T00:11:09.121Z,100785.95
2018-10-16T00:13:36.464Z,100777.46
2018-10-16T00:16:03.701Z,100775.85
2018-10-16T00:18:30.909Z,100774.97
2018-10-16T00:20:58.153Z,100775.70
2018-10-16T00:23:25.459Z,100774.12
2018-10-16T00:25:52.726Z,100781.42
2018-10-16T00:28:20.149Z,100770.65
2018-10-16T00:30:47.424Z,100773.60
2018-10-16T00:33:14.758Z,100772.92
2018-10-16T00:35:42.019Z,100775.47
2018-10-16T00:38:09.936Z,100773.42
2018-10-16T00:40:37.436Z,100774.59
2018-10-16T00:43:04.711Z,100789.67
2018-10-16T00:45:32.016Z,100790.88
2018-10-16T00:47:59.247Z,100793.75
2018-10-16T00:50:27.343Z,100788.76
2018-10-16T00:52:54.700Z,100787.61
2018-10-16T00:55:22.266Z,100788.74
2018-10-16T00:57:49.598Z,100784.95
2018-10-16T01:00:17.040Z,100796.58
2018-10-16T01:02:44.304Z,100794.19
2018-10-16T01:05:12.517Z,100795.67
2018-10-16T01:07:40.672Z,100794.77
2018-10-16T01:10:08.973Z,100794.44
2018-10-16T01:12:37.088Z,100786.81
2018-10-16T01:15:04.699Z,100794.11
2018-10-16T01:17:31.946Z,100801.69
2018-10-16T01:19:59.216Z,100797.09
2018-10-16T01:22:26.609Z,100797.47
2018-10-16T01:24:53.866Z,100800.36
2018-10-16T01:27:21.252Z,100801.39
2018-10-16T01:29:48.516Z,100800.07
2018-10-16T01:32:15.953Z,100798.34
2018-10-16T01:34:43.326Z,100802.14
2018-10-16T01:37:11.323Z,100801.30
2018-10-16T01:39:38.637Z,100800.99
2018-10-16T01:42:05.957Z,100797.00
2018-10-16T01:44:33.183Z,100797.00
2018-10-16T01:47:00.501Z,100792.80
2018-10-16T01:49:27.758Z,100791.79
2018-10-16T01:51:55.193Z,100791.77
2018-10-16T01:54:22.471Z,100790.38
2018-10-16T01:56:49.761Z,100794.05
2018-10-16T01:59:17.028Z,100792.58
2018-10-16T02:01:44.279Z,100798.33
2018-10-16T02:04:15.135Z,100805.09
2018-10-16T02:06:42.429Z,100799.70
2018-10-16T02:09:11.017Z,100797.12
2018-10-16T02:11:38.392Z,100791.19
2018-10-16T02:14:05.933Z,100800.59
2018-10-16T02:16:33.331Z,100808.27
2018-10-16T02:19:00.608Z,100805.94
2018-10-16T02:21:28.607Z,100801.89
2018-10-16T02:23:56.622Z,100805.94
2018-10-16T02:26:24.397Z,100798.70
2018-10-16T02:28:51.650Z,100794.36
2018-10-16T02:31:19.033Z,100803.81
2018-10-16T02:33:46.336Z,100812.86
2018-10-16T02:36:14.109Z,100812.56
2018-10-16T02:38:41.414Z,100825.67
2018-10-16T02:41:08.766Z,100829.77
2018-10-16T02:43:36.102Z,100826.89
2018-10-16T02:46:03.469Z,100838.52
2018-10-16T02:48:30.690Z,100836.16
2018-10-16T02:50:58.019Z,100838.44
2018-10-16T02:53:25.332Z,100839.22
2018-10-16T02:55:52.740Z,100839.22
2018-10-16T02:58:20.081Z,100839.99
2018-10-16T03:00:47.376Z,100839.22
2018-10-16T03:03:14.680Z,100835.80
2018-10-16T03:05:42.119Z,100829.89
2018-10-16T03:08:09.404Z,100836.95
2018-10-16T03:10:36.713Z,100838.92
2018-10-16T03:13:04.023Z,100835.92
2018-10-16T03:15:31.279Z,100829.58
2018-10-16T03:17:58.766Z,100838.93
2018-10-16T03:20:26.029Z,100839.09
2018-10-16T03:22:53.402Z,100843.16
2018-10-16T03:25:21.415Z,100851.22
2018-10-16T03:27:48.656Z,100846.86
2018-10-16T03:30:15.963Z,100855.80
2018-10-16T03:32:43.216Z,100847.67
2018-10-16T03:35:11.439Z,100848.45
2018-10-16T03:37:46.756Z,100850.58
2018-10-16T03:40:14.541Z,100851.32
2018-10-16T03:42:42.589Z,100843.47
2018-10-16T03:45:11.529Z,100849.34
2018-10-16T03:47:39.608Z,100855.89
2018-10-16T03:50:07.465Z,100854.05
2018-10-16T03:52:34.811Z,100850.20
2018-10-16T03:55:02.040Z,100856.43
2018-10-16T03:57:29.553Z,100859.47
2018-10-16T03:59:57.049Z,100856.21
2018-10-16T04:02:24.354Z,100855.73
2018-10-16T04:04:51.803Z,100851.51
2018-10-16T04:07:19.067Z,100857.11
2018-10-16T04:09:46.360Z,100856.95
2018-10-16T04:12:13.624Z,100865.34
2018-10-16T04:14:40.898Z,100859.70
2018-10-16T04:17:08.228Z,100865.45
2018-10-16T04:19:35.623Z,100871.88
2018-10-16T04:22:03.056Z,100874.52
2018-10-16T04:24:30.446Z,100870.26
2018-10-16T04:26:57.766Z,100866.78
2018-10-16T04:29:25.118Z,100863.55
2018-10-16T04:31:52.550Z,100863.41
2018-10-16T04:34:19.914Z,100864.63
2018-10-16T04:36:47.200Z,100862.50
2018-10-16T04:39:14.744Z,100870.77
2018-10-16T04:41:42.485Z,100871.37
2018-10-16T04:44:10.442Z,100871.30
2018-10-16T04:46:37.738Z,100876.20
2018-10-16T04:49:05.336Z,100880.22
2018-10-16T04:51:32.629Z,100878.03
2018-10-16T04:53:59.978Z,100880.74
2018-10-16T04:56:27.274Z,100881.39
2018-10-16T04:58:54.660Z,100884.87
2018-10-16T05:01:21.989Z,100887.48
2018-10-16T05:03:49.232Z,100888.80
2018-10-16T05:06:16.625Z,100891.71
2018-10-16T05:08:44.129Z,100896.12
2018-10-16T05:11:11.420Z,100890.66
2018-10-16T05:13:38.772Z,100892.89
2018-10-16T05:16:06.046Z,100891.71
2018-10-16T05:18:33.419Z,100889.06
2018-10-16T05:21:00.881Z,100888.16
2018-10-16T05:23:28.889Z,100896.63
2018-10-16T05:25:56.283Z,100894.32
2018-10-16T05:28:23.560Z,100897.94
2018-10-16T05:30:50.831Z,100890.52
2018-10-16T05:33:18.120Z,100898.67
2018-10-16T05:35:45.565Z,100899.59
2018-10-16T05:38:12.854Z,100902.36
2018-10-16T05:40:40.098Z,100899.65
2018-10-16T05:43:07.694Z,100894.87
2018-10-16T05:45:38.257Z,100900.59
2018-10-16T05:48:05.536Z,100898.02
2018-10-16T05:50:32.790Z,100903.11
2018-10-16T05:53:00.106Z,100911.81
2018-10-16T05:55:27.379Z,100908.59
2018-10-16T05:57:54.864Z,100920.36
2018-10-16T06:00:31.258Z,100920.59
2018-10-16T06:02:58.513Z,100917.84
2018-10-16T06:05:25.838Z,100927.77
2018-10-16T06:07:53.045Z,100924.78
2018-10-16T06:10:20.405Z,100937.14
2018-10-16T06:12:47.668Z,100939.33
2018-10-16T06:15:14.962Z,100949.64
2018-10-16T06:17:42.231Z,100953.77
2018-10-16T06:20:12.114Z,100951.89
2018-10-16T06:22:39.755Z,100955.08
2018-10-16T06:25:08.668Z,100954.66
2018-10-16T06:27:35.921Z,100952.57
2018-10-16T06:30:03.575Z,100958.38
2018-10-16T06:32:30.870Z,100966.38
2018-10-16T06:34:58.380Z,100968.38
2018-10-16T06:37:25.754Z,100971.74
2018-10-16T06:39:53.065Z,100973.98
2018-10-16T06:42:20.403Z,100978.34
2018-10-16T06:44:47.743Z,100982.25
2018-10-16T06:47:15.104Z,100978.22
2018-10-16T06:49:42.495Z,100974.25
2018-10-16T06:52:09.874Z,100969.73
2018-10-16T06:54:37.187Z,100973.67
2018-10-16T06:57:04.969Z,100984.12
2018-10-16T06:59:32.894Z,100990.72
2018-10-16T07:02:00.194Z,100986.88
2018-10-16T07:04:27.458Z,100991.23
2018-10-16T07:06:54.831Z,100991.48
2018-10-16T07:09:22.042Z,100996.42
2018-10-16T07:11:49.460Z,100981.19
2018-10-16T07:14:16.780Z,100984.63
2018-10-16T07:16:44.628Z,100990.83
2018-10-16T07:19:12.912Z,100994.73
2018-10-16T07:21:40.870Z,100995.30
2018-10-16T07:24:08.640Z,100998.47
2018-10-16T07:26:35.909Z,101000.17
2018-10-16T07:29:03.349Z,100992.94
2018-10-16T07:31:30.629Z,100991.27
2018-10-16T07:33:58.233Z,100990.18
2018-10-16T07:36:25.473Z,100990.27
2018-10-16T07:38:52.862Z,100984.16
2018-10-16T07:41:20.393Z,100984.27
2018-10-16T07:43:47.795Z,100986.70
2018-10-16T07:46:15.057Z,100983.98
2018-10-16T07:48:42.425Z,100987.30
2018-10-16T07:51:09.611Z,100993.45
2018-10-16T07:53:36.884Z,100991.99
2018-10-16T07:56:04.461Z,100995.06
2018-10-16T07:58:32.305Z,100994.05
2018-10-16T08:01:00.402Z,101000.44
2018-10-16T08:03:27.775Z,100998.41
2018-10-16T08:05:55.043Z,101002.48
2018-10-16T08:08:22.299Z,101005.03
2018-10-16T08:10:49.627Z,101005.83
2018-10-16T08:13:16.881Z,101003.03
2018-10-16T08:15:44.135Z,101004.39
2018-10-16T08:18:11.555Z,101004.33
2018-10-16T08:20:38.835Z,101004.06
2018-10-16T08:23:06.145Z,101004.81
2018-10-16T08:25:33.387Z,101003.13
2018-10-16T08:28:01.372Z,101003.70
2018-10-16T08:30:29.413Z,100998.94
2018-10-16T08:32:56.881Z,101001.20
2018-10-16T08:35:24.299Z,101001.30
2018-10-16T08:40:11.428Z,101010.73
2018-10-16T08:42:57.562Z,101008.53
2018-10-16T08:45:36.460Z,101014.28
2018-10-16T08:48:15.240Z,101007.28
2018-10-16T08:50:54.234Z,101011.84
2018-10-16T08:53:21.550Z,101019.23
2018-10-16T08:55:48.913Z,101014.50
2018-10-16T08:58:16.314Z,101019.47
2018-10-16T09:00:43.734Z,101025.27
2018-10-16T09:03:11.070Z,101019.76
2018-10-16T09:05:38.352Z,101022.35
2018-10-16T09:08:05.688Z,101024.84
2018-10-16T09:10:33.058Z,101027.98
2018-10-16T09:13:00.319Z,101024.75
2018-10-16T09:15:27.636Z,101022.98
2018-10-16T09:17:54.984Z,101024.05
2018-10-16T09:20:22.419Z,101034.17
2018-10-16T09:22:49.652Z,101036.78
2018-10-16T09:25:17.132Z,101031.59
2018-10-16T09:27:44.519Z,101034.64
2018-10-16T09:30:13.011Z,101036.41
2018-10-16T09:32:40.630Z,101034.81
2018-10-16T09:35:09.655Z,101039.11
2018-10-16T09:37:37.539Z,101041.79
2018-10-16T09:40:05.979Z,101042.50
2018-10-16T09:42:33.465Z,101043.79
2018-10-16T09:45:00.801Z,101040.66
2018-10-16T09:47:28.205Z,101043.23
2018-10-16T09:49:55.618Z,101044.31
2018-10-16T09:52:23.063Z,101037.68
2018-10-16T09:54:50.423Z,101039.38
2018-10-16T09:57:17.742Z,101034.34
2018-10-16T09:59:45.038Z,101038.71
2018-10-16T10:02:12.963Z,101039.70
2018-10-16T10:04:40.317Z,101039.38
2018-10-16T10:07:07.620Z,101031.41
2018-10-16T10:09:34.934Z,101032.89
2018-10-16T10:12:02.437Z,101044.48
2018-10-16T10:14:29.798Z,101041.13
2018-10-16T10:16:57.110Z,101045.07
2018-10-16T10:19:24.422Z,101039.23
2018-10-16T10:21:52.002Z,101034.23
2018-10-16T10:24:19.287Z,101035.53
2018-10-16T10:26:46.576Z,101036.02
2018-10-16T10:29:13.959Z,101034.80
2018-10-16T10:31:41.196Z,101034.83
2018-10-16T10:34:08.514Z,101035.70
2018-10-16T10:36:35.792Z,101035.58
2018-10-16T10:39:04.568Z,101039.23
2018-10-16T10:41:32.560Z,101037.31
2018-10-16T10:43:59.820Z,101029.11
2018-10-16T10:46:27.787Z,101031.84
2018-10-16T10:48:55.241Z,101026.36
2018-10-16T10:51:22.944Z,101015.80
2018-10-16T10:53:49.976Z,101017.47
2018-10-16T10:56:17.288Z,101020.44
2018-10-16T10:58:44.546Z,101019.17
2018-10-16T11:01:11.840Z,101009.64
2018-10-16T11:03:39.353Z,101015.11
2018-10-16T11:06:06.571Z,101010.37
2018-10-16T11:08:34.631Z,101006.41
2018-10-16T11:11:02.583Z,101014.11
2018-10-16T11:13:30.525Z,101014.02
2018-10-16T11:15:57.899Z,101008.55
2018-10-16T11:18:25.154Z,101002.46
2018-10-16T11:20:52.484Z,100997.72
2018-10-16T11:23:19.731Z,100994.39
2018-10-16T11:25:47.085Z,101000.61
2018-10-16T11:28:14.388Z,100994.92
2018-10-16T11:30:41.799Z,100999.61
2018-10-16T11:33:09.302Z,100996.44
2018-10-16T11:35:36.546Z,100994.71
2018-10-16T11:38:04.159Z,100997.41
2018-10-16T11:40:31.424Z,101002.23
2018-10-16T11:42:58.901Z,101003.05
2018-10-16T11:45:26.259Z,101002.32
2018-10-16T11:47:53.540Z,101003.05
2018-10-16T11:50:20.866Z,101003.49
2018-10-16T11:52:48.202Z,101007.53
2018-10-16T11:55:15.498Z,101009.17
2018-10-16T11:57:42.758Z,101003.55
2018-10-16T12:00:12.856Z,101002.53
2018-10-16T12:02:40.953Z,101006.09
2018-10-16T12:05:08.199Z,101005.00
2018-10-16T12:07:35.504Z,101006.92
2018-10-16T12:10:02.884Z,100999.63
2018-10-16T12:12:30.214Z,101008.52
2018-10-16T12:14:57.492Z,101002.02
2018-10-16T12:17:30.498Z,101003.48
2018-10-16T12:20:01.640Z,101001.64
2018-10-16T12:22:29.084Z,100998.06
2018-10-16T12:24:56.493Z,100998.08
2018-10-16T12:27:23.761Z,100996.39
2018-10-16T12:29:51.059Z,100995.80
2018-10-16T12:32:18.409Z,100998.03
2018-10-16T12:34:45.634Z,100991.95
2018-10-16T12:37:12.921Z,100989.91
2018-10-16T12:39:40.319Z,100985.70
2018-10-16T12:42:07.773Z,100981.59
2018-10-16T12:44:35.051Z,100980.08
2018-10-16T12:47:02.360Z,100979.73
2018-10-16T12:49:29.941Z,100984.50
2018-10-16T12:51:57.312Z,100987.08
2018-10-16T12:54:24.703Z,100979.20
2018-10-16T12:56:52.796Z,100984.72
2018-10-16T12:59:20.142Z,100992.62
2018-10-16T13:01:47.552Z,100993.67
2018-10-16T13:04:14.806Z,100991.82
2018-10-16T13:06:42.508Z,100989.45
2018-10-16T13:09:11.257Z,100991.18
2018-10-16T13:11:39.576Z,100993.77
2018-10-16T13:14:07.187Z,100989.61
2018-10-16T13:16:34.581Z,100996.78
2018-10-16T13:19:01.835Z,100991.84
2018-10-16T13:21:29.897Z,100992.87
2018-10-16T13:23:57.260Z,101000.96
2018-10-16T13:26:24.613Z,100993.41
2018-10-16T13:28:51.980Z,100990.28
2018-10-16T13:31:19.295Z,100983.44
2018-10-16T13:33:46.724Z,100988.51
2018-10-16T13:36:13.978Z,100996.45
2018-10-16T13:38:41.382Z,100991.66
2018-10-16T13:41:08.765Z,100994.45
2018-10-16T13:43:37.042Z,100992.77
2018-10-16T13:46:05.035Z,100991.52
2018-10-16T13:48:32.980Z,100990.20
2018-10-16T13:51:00.391Z,100987.67
2018-10-16T13:53:27.714Z,100985.79
2018-10-16T13:55:55.122Z,100989.55
2018-10-16T13:58:22.422Z,100985.77
2018-10-16T14:00:49.852Z,100984.59
2018-10-16T14:03:17.333Z,100984.17
2018-10-16T14:05:44.716Z,100995.19
2018-10-16T14:08:12.080Z,100994.27
2018-10-16T14:10:39.363Z,100992.87
2018-10-16T14:13:06.691Z,101002.02
2018-10-16T14:15:34.609Z,100993.66
2018-10-16T14:18:02.555Z,100993.22
2018-10-16T14:20:29.881Z,100994.77
2018-10-16T14:22:57.263Z,100995.02
2018-10-16T14:25:24.655Z,100996.07
2018-10-16T14:27:52.055Z,101008.23
2018-10-16T14:30:19.396Z,101002.63
2018-10-16T14:32:46.679Z,100992.00
2018-10-16T14:35:14.459Z,100998.94
2018-10-16T14:37:41.758Z,101002.35
2018-10-16T14:40:11.601Z,101001.23
2018-10-16T14:42:39.278Z,100997.61
2018-10-16T14:45:08.091Z,100999.23
2018-10-16T14:47:36.047Z,100999.05
2018-10-16T14:50:03.940Z,101001.70
2018-10-16T14:52:31.186Z,101010.25
2018-10-16T14:54:58.434Z,101009.52
2018-10-16T14:57:25.882Z,101005.12
2018-10-16T14:59:53.344Z,101005.81
2018-10-16T15:02:20.667Z,101014.40
2018-10-16T15:04:48.017Z,101012.35
2018-10-16T15:07:15.362Z,101015.47
2018-10-16T15:09:42.692Z,101016.19
2018-10-16T15:12:09.981Z,101010.28
2018-10-16T15:14:37.328Z,101010.34
2018-10-16T15:17:05.769Z,101014.08
2018-10-16T15:19:33.180Z,101013.63
2018-10-16T15:22:00.532Z,101010.66
2018-10-16T15:24:28.540Z,101017.59
2018-10-16T15:26:55.868Z,101016.84
2018-10-16T15:29:23.196Z,101016.64
2018-10-16T15:31:50.678Z,101013.01
2018-10-16T15:34:18.120Z,101005.56
2018-10-16T15:36:45.393Z,101011.34
2018-10-16T15:39:13.177Z,101010.08
2018-10-16T15:41:40.425Z,101015.02
2018-10-16T15:44:08.568Z,101015.39
2018-10-16T15:46:36.424Z,101021.69
2018-10-16T15:49:04.042Z,101024.03
2018-10-16T15:51:31.459Z,101023.46
2018-10-16T15:53:58.779Z,101030.86
2018-10-16T15:56:26.084Z,101024.05
2018-10-16T15:58:53.475Z,101017.98
2018-10-16T16:01:20.747Z,101023.03
2018-10-16T16:03:48.055Z,101034.14
2018-10-16T16:06:15.331Z,101035.05
2018-10-16T16:08:42.648Z,101028.02
2018-10-16T16:11:10.064Z,101031.67
2018-10-16T16:13:37.472Z,101032.72
2018-10-16T16:16:04.792Z,101024.50
2018-10-16T16:18:32.119Z,101027.28
2018-10-16T16:20:59.973Z,101030.91
2018-10-16T16:23:27.307Z,101023.86
2018-10-16T16:25:54.617Z,101024.45
2018-10-16T16:28:22.458Z,101028.84
2018-10-16T16:30:49.757Z,101028.71
2018-10-16T16:33:17.019Z,101037.43
2018-10-16T16:35:44.343Z,101035.95
2018-10-16T16:38:12.153Z,101039.92
2018-10-16T16:40:39.447Z,101035.75
2018-10-16T16:43:06.823Z,101045.62
2018-10-16T16:45:34.147Z,101049.39
2018-10-16T16:48:01.509Z,101057.48
2018-10-16T16:50:28.903Z,101062.66
2018-10-16T16:52:56.822Z,101056.34
2018-10-16T16:55:24.351Z,101058.27
2018-10-16T16:57:51.786Z,101065.97
2018-10-16T17:00:19.161Z,101065.48
2018-10-16T17:02:47.071Z,101067.67
2018-10-16T17:05:14.887Z,101074.60
2018-10-16T17:07:42.836Z,101074.48
2018-10-16T17:10:10.215Z,101073.50
2018-10-16T17:12:38.379Z,101071.41
2018-10-16T17:15:07.875Z,101072.14
2018-10-16T17:17:35.220Z,101077.24
2018-10-16T17:20:03.097Z,101082.78
2018-10-16T17:22:30.379Z,101078.98
2018-10-16T17:24:57.789Z,101088.70
2018-10-16T17:27:25.091Z,101081.61
2018-10-16T17:29:52.495Z,101082.59
2018-10-16T17:32:19.748Z,101087.08
2018-10-16T17:34:47.076Z,101086.36
2018-10-16T17:37:14.469Z,101087.27
2018-10-16T17:39:41.838Z,101090.53
2018-10-16T17:42:09.258Z,101091.31
2018-10-16T17:44:36.768Z,101093.12
2018-10-16T17:47:04.382Z,101086.42
2018-10-16T17:49:31.640Z,101084.59
2018-10-16T17:51:58.980Z,101084.75
2018-10-16T17:54:26.358Z,101087.95
2018-10-16T17:56:53.814Z,101092.33
2018-10-16T17:59:21.064Z,101087.95
2018-10-16T18:01:48.500Z,101087.44
2018-10-16T18:04:16.756Z,101100.00
2018-10-16T18:06:44.072Z,101096.59
2018-10-16T18:09:12.215Z,101099.27
2018-10-16T18:11:39.509Z,101096.34
2018-10-16T18:14:07.616Z,101092.58
2018-10-16T18:16:34.962Z,101092.16
2018-10-16T18:19:02.395Z,101095.46
2018-10-16T18:21:30.424Z,101088.66
2018-10-16T18:23:57.889Z,101096.80
2018-10-16T18:26:25.395Z,101093.15
2018-10-16T18:28:52.812Z,101097.83
2018-10-16T18:31:20.252Z,101096.94
2018-10-16T18:33:47.517Z,101097.51
2018-10-16T18:36:14.845Z,101096.09
2018-10-16T18:38:42.095Z,101105.77
2018-10-16T18:41:15.635Z,101095.97
2018-10-16T18:43:43.048Z,101105.38
2018-10-16T18:46:10.385Z,101113.73
2018-10-16T18:48:37.742Z,101113.51
2018-10-16T18:51:05.220Z,101113.70
2018-10-16T18:53:32.735Z,101117.63
2018-10-16T18:56:00.023Z,101120.76
2018-10-16T18:58:27.509Z,101118.19
2018-10-16T19:00:54.906Z,101122.36
2018-10-16T19:03:22.279Z,101119.58
2018-10-16T19:05:49.780Z,101125.75
2018-10-16T19:08:17.037Z,101122.68
2018-10-16T19:10:44.404Z,101123.23
2018-10-16T19:13:11.741Z,101117.96
2018-10-16T19:15:39.037Z,101126.31
2018-10-16T19:18:06.380Z,101126.05
2018-10-16T19:20:34.859Z,101129.13
2018-10-16T19:23:02.765Z,101131.61
2018-10-16T19:25:30.123Z,101124.38
2018-10-16T19:27:57.438Z,101131.99
2018-10-16T19:30:24.723Z,101132.78
2018-10-16T19:32:51.978Z,101136.05
2018-10-16T19:35:19.303Z,101134.67
2018-10-16T19:37:46.649Z,101139.64
2018-10-16T19:40:14.077Z,101136.42
2018-10-16T19:42:41.466Z,101139.35
2018-10-16T19:45:09.696Z,101144.97
2018-10-16T19:47:37.914Z,101136.78
2018-10-16T19:50:06.078Z,101133.93
2018-10-16T19:52:33.476Z,101139.96
2018-10-16T19:55:00.888Z,101145.30
2018-10-16T19:57:28.196Z,101143.32
2018-10-16T19:59:55.723Z,101140.65
2018-10-16T20:02:22.973Z,101141.80
2018-10-16T20:04:50.389Z,101135.68
2018-10-16T20:07:17.945Z,101142.77
2018-10-16T20:09:45.189Z,101138.58
2018-10-16T20:12:12.674Z,101135.53
2018-10-16T20:14:40.746Z,101135.90
2018-10-16T20:17:08.747Z,101136.40
2018-10-16T20:19:36.179Z,101137.73
2018-10-16T20:22:03.565Z,101132.86
2018-10-16T20:24:30.895Z,101134.78
2018-10-16T20:26:58.349Z,101141.46
2018-10-16T20:29:25.749Z,101144.13
2018-10-16T20:31:53.123Z,101134.01
2018-10-16T20:34:20.431Z,101138.58
2018-10-16T20:36:47.781Z,101143.57
2018-10-16T20:39:15.052Z,101143.34
2018-10-16T20:41:42.429Z,101140.95
2018-10-16T20:44:10.436Z,101145.27
2018-10-16T20:46:37.773Z,101147.94
2018-10-16T20:49:05.927Z,101147.92
2018-10-16T20:51:33.544Z,101149.28
2018-10-16T20:54:01.417Z,101142.88
2018-10-16T20:56:28.786Z,101143.56
2018-10-16T20:58:56.752Z,101141.66
2018-10-16T21:01:24.171Z,101147.38
2018-10-16T21:03:51.658Z,101143.94
2018-10-16T21:06:19.289Z,101150.22
2018-10-16T21:08:46.464Z,101144.81
2018-10-16T21:11:14.162Z,101151.16
2018-10-16T21:13:42.210Z,101141.63
2018-10-16T21:16:09.552Z,101147.53
2018-10-16T21:18:37.011Z,101148.48
2018-10-16T21:21:05.064Z,101147.27
2018-10-16T21:23:32.414Z,101142.86
2018-10-16T21:25:59.830Z,101142.59
2018-10-16T21:28:27.290Z,101139.07
2018-10-16T21:30:54.716Z,101138.80
2018-10-16T21:33:22.138Z,101140.88
2018-10-16T21:35:49.410Z,101142.41
2018-10-16T21:38:16.802Z,101138.30
2018-10-16T21:40:44.047Z,101139.28
2018-10-16T21:43:11.495Z,101139.82
2018-10-16T21:45:38.818Z,101141.45
2018-10-16T21:48:06.084Z,101143.53
2018-10-16T21:50:33.417Z,101133.44
2018-10-16T21:53:00.737Z,101130.76
2018-10-16T21:55:28.037Z,101136.58
2018-10-16T21:57:55.502Z,101137.42
2018-10-16T22:00:28.468Z,101126.56
2018-10-16T22:02:57.110Z,101127.28
2018-10-16T22:05:25.097Z,101121.20
2018-10-16T22:07:53.965Z,101122.50
2018-10-16T22:10:21.775Z,101126.30
2018-10-16T22:12:49.272Z,101122.33
2018-10-16T22:15:18.231Z,101127.14
2018-10-16T22:17:45.575Z,101126.47
2018-10-16T22:20:13.409Z,101124.77
2018-10-16T22:22:41.009Z,101118.85
2018-10-16T22:25:08.488Z,101121.77
2018-10-16T22:27:35.737Z,101119.73
2018-10-16T22:30:03.099Z,101118.81
2018-10-16T22:32:30.986Z,101126.01
2018-10-16T22:34:58.364Z,101121.23
2018-10-16T22:37:25.645Z,101121.51
2018-10-16T22:39:53.609Z,101120.47
2018-10-16T22:42:20.855Z,101122.55
2018-10-16T22:44:48.713Z,101125.30
2018-10-16T22:47:16.062Z,101120.22
2018-10-16T22:49:43.442Z,101119.98
2018-10-16T22:52:10.740Z,101118.77
2018-10-16T22:54:38.171Z,101126.34
2018-10-16T22:57:06.090Z,101121.95
2018-10-16T22:59:33.329Z,101122.47
2018-10-16T23:02:00.637Z,101123.83
2018-10-16T23:04:28.020Z,101122.11
2018-10-16T23:06:55.461Z,101126.46
2018-10-16T23:09:22.704Z,101116.36
2018-10-16T23:11:50.667Z,101124.94
2018-10-16T23:14:17.980Z,101129.34
2018-10-16T23:16:45.268Z,101117.82
2018-10-16T23:19:12.571Z,101123.74
2018-10-16T23:21:39.776Z,101121.95
2018-10-16T23:24:07.108Z,101126.25
2018-10-16T23:26:35.391Z,101122.69
2018-10-16T23:29:02.791Z,101119.09
2018-10-16T23:31:30.138Z,101114.20
2018-10-16T23:33:57.455Z,101116.23
2018-10-16T23:36:25.379Z,101112.03
2018-10-16T23:38:52.636Z,101111.86
2018-10-16T23:41:19.899Z,101108.73
2018-10-16T23:43:47.198Z,101108.44
2018-10-16T23:46:14.477Z,101105.45
2018-10-16T23:48:41.819Z,101109.31
2018-10-16T23:51:09.153Z,101105.83
2018-10-16T23:53:36.584Z,101109.08
2018-10-16T23:56:03.918Z,101111.66
2018-10-16T23:58:31.713Z,101107.11
